sensor_id;sensor_type;location;lat;lon;timestamp;P1;durP1;ratioP1;P2;durP2;ratioP2
12476;SDS011;6303;51.504;6.300;2023-04-25T00:01:10;3.38;;;2.10;;
12476;SDS011;6303;51.504;6.300;2023-04-25T00:03:38;4.03;;;2.22;;
12476;SDS011;6303;51.504;6.300;2023-04-25T00:06:05;3.05;;;1.85;;
12476;SDS011;6303;51.504;6.300;2023-04-25T00:08:33;2.30;;;1.70;;
12476;SDS011;6303;51.504;6.300;2023-04-25T00:11:00;2.78;;;2.30;;
12476;SDS011;6303;51.504;6.300;2023-04-25T00:13:29;4.10;;;2.40;;
12476;SDS011;6303;51.504;6.300;2023-04-25T00:15:56;4.05;;;2.25;;
12476;SDS011;6303;51.504;6.300;2023-04-25T00:18:23;2.38;;;2.00;;
12476;SDS011;6303;51.504;6.300;2023-04-25T00:20:50;2.67;;;1.90;;
12476;SDS011;6303;51.504;6.300;2023-04-25T00:23:17;3.15;;;1.98;;
12476;SDS011;6303;51.504;6.300;2023-04-25T00:25:44;4.03;;;2.08;;
12476;SDS011;6303;51.504;6.300;2023-04-25T00:28:12;2.95;;;1.80;;
12476;SDS011;6303;51.504;6.300;2023-04-25T00:30:41;3.50;;;2.28;;
12476;SDS011;6303;51.504;6.300;2023-04-25T00:33:09;2.33;;;1.80;;
12476;SDS011;6303;51.504;6.300;2023-04-25T00:35:36;1.90;;;1.70;;
12476;SDS011;6303;51.504;6.300;2023-04-25T00:38:04;4.88;;;2.13;;
12476;SDS011;6303;51.504;6.300;2023-04-25T00:40:31;3.25;;;2.03;;
12476;SDS011;6303;51.504;6.300;2023-04-25T00:42:58;3.10;;;2.00;;
12476;SDS011;6303;51.504;6.300;2023-04-25T00:45:26;2.80;;;2.00;;
12476;SDS011;6303;51.504;6.300;2023-04-25T00:47:56;3.05;;;1.80;;
12476;SDS011;6303;51.504;6.300;2023-04-25T00:50:23;2.60;;;1.85;;
12476;SDS011;6303;51.504;6.300;2023-04-25T00:52:50;2.50;;;2.00;;
12476;SDS011;6303;51.504;6.300;2023-04-25T00:55:18;2.25;;;1.73;;
12476;SDS011;6303;51.504;6.300;2023-04-25T00:57:46;2.83;;;2.00;;
12476;SDS011;6303;51.504;6.300;2023-04-25T01:00:13;4.32;;;2.00;;
12476;SDS011;6303;51.504;6.300;2023-04-25T01:02:42;2.50;;;1.75;;
12476;SDS011;6303;51.504;6.300;2023-04-25T01:05:12;2.50;;;2.03;;
12476;SDS011;6303;51.504;6.300;2023-04-25T01:07:39;3.72;;;1.92;;
12476;SDS011;6303;51.504;6.300;2023-04-25T01:10:06;2.45;;;1.90;;
12476;SDS011;6303;51.504;6.300;2023-04-25T01:12:36;2.08;;;1.90;;
12476;SDS011;6303;51.504;6.300;2023-04-25T01:15:03;3.08;;;1.90;;
12476;SDS011;6303;51.504;6.300;2023-04-25T01:17:33;2.63;;;1.92;;
12476;SDS011;6303;51.504;6.300;2023-04-25T01:20:01;3.00;;;1.90;;
12476;SDS011;6303;51.504;6.300;2023-04-25T01:22:32;2.20;;;1.77;;
12476;SDS011;6303;51.504;6.300;2023-04-25T01:24:59;2.30;;;2.03;;
12476;SDS011;6303;51.504;6.300;2023-04-25T01:27:27;3.15;;;1.88;;
12476;SDS011;6303;51.504;6.300;2023-04-25T01:29:55;2.25;;;1.55;;
12476;SDS011;6303;51.504;6.300;2023-04-25T01:32:23;2.30;;;1.95;;
12476;SDS011;6303;51.504;6.300;2023-04-25T01:34:50;2.08;;;1.88;;
12476;SDS011;6303;51.504;6.300;2023-04-25T01:37:18;1.83;;;1.73;;
12476;SDS011;6303;51.504;6.300;2023-04-25T01:39:47;1.77;;;1.67;;
12476;SDS011;6303;51.504;6.300;2023-04-25T01:42:15;1.98;;;1.80;;
12476;SDS011;6303;51.504;6.300;2023-04-25T01:44:42;2.10;;;1.85;;
12476;SDS011;6303;51.504;6.300;2023-04-25T01:47:09;3.70;;;1.95;;
12476;SDS011;6303;51.504;6.300;2023-04-25T01:49:37;1.95;;;1.55;;
12476;SDS011;6303;51.504;6.300;2023-04-25T01:52:04;2.70;;;1.85;;
12476;SDS011;6303;51.504;6.300;2023-04-25T01:54:31;3.63;;;1.90;;
12476;SDS011;6303;51.504;6.300;2023-04-25T01:56:59;2.47;;;1.90;;
12476;SDS011;6303;51.504;6.300;2023-04-25T01:59:27;2.47;;;1.65;;
12476;SDS011;6303;51.504;6.300;2023-04-25T02:02:03;2.40;;;1.80;;
12476;SDS011;6303;51.504;6.300;2023-04-25T02:04:32;2.92;;;1.75;;
12476;SDS011;6303;51.504;6.300;2023-04-25T02:07:00;1.90;;;1.50;;
12476;SDS011;6303;51.504;6.300;2023-04-25T02:09:36;1.77;;;1.65;;
12476;SDS011;6303;51.504;6.300;2023-04-25T02:12:07;2.35;;;1.58;;
12476;SDS011;6303;51.504;6.300;2023-04-25T02:14:54;2.92;;;1.63;;
12476;SDS011;6303;51.504;6.300;2023-04-25T02:17:27;2.58;;;1.80;;
12476;SDS011;6303;51.504;6.300;2023-04-25T02:19:54;2.08;;;1.70;;
12476;SDS011;6303;51.504;6.300;2023-04-25T02:22:22;1.83;;;1.63;;
12476;SDS011;6303;51.504;6.300;2023-04-25T02:24:49;1.70;;;1.60;;
12476;SDS011;6303;51.504;6.300;2023-04-25T02:27:18;1.70;;;1.60;;
12476;SDS011;6303;51.504;6.300;2023-04-25T02:29:45;2.22;;;1.75;;
12476;SDS011;6303;51.504;6.300;2023-04-25T02:32:12;2.75;;;1.65;;
12476;SDS011;6303;51.504;6.300;2023-04-25T02:34:39;1.88;;;1.73;;
12476;SDS011;6303;51.504;6.300;2023-04-25T02:37:06;1.77;;;1.67;;
12476;SDS011;6303;51.504;6.300;2023-04-25T02:39:33;1.88;;;1.70;;
12476;SDS011;6303;51.504;6.300;2023-04-25T02:42:00;1.63;;;1.52;;
12476;SDS011;6303;51.504;6.300;2023-04-25T02:44:30;2.95;;;1.60;;
12476;SDS011;6303;51.504;6.300;2023-04-25T02:46:57;2.92;;;1.70;;
12476;SDS011;6303;51.504;6.300;2023-04-25T02:49:24;1.88;;;1.52;;
12476;SDS011;6303;51.504;6.300;2023-04-25T02:51:51;1.88;;;1.70;;
12476;SDS011;6303;51.504;6.300;2023-04-25T02:54:18;1.50;;;1.40;;
12476;SDS011;6303;51.504;6.300;2023-04-25T02:56:47;1.70;;;1.60;;
12476;SDS011;6303;51.504;6.300;2023-04-25T02:59:19;1.83;;;1.70;;
12476;SDS011;6303;51.504;6.300;2023-04-25T03:01:48;2.58;;;1.70;;
12476;SDS011;6303;51.504;6.300;2023-04-25T03:04:15;1.95;;;1.60;;
12476;SDS011;6303;51.504;6.300;2023-04-25T03:06:44;1.77;;;1.67;;
12476;SDS011;6303;51.504;6.300;2023-04-25T03:09:11;2.20;;;1.70;;
12476;SDS011;6303;51.504;6.300;2023-04-25T03:11:38;2.67;;;1.55;;
12476;SDS011;6303;51.504;6.300;2023-04-25T03:14:05;2.28;;;1.83;;
12476;SDS011;6303;51.504;6.300;2023-04-25T03:16:33;2.50;;;1.80;;
12476;SDS011;6303;51.504;6.300;2023-04-25T03:19:01;1.60;;;1.42;;
12476;SDS011;6303;51.504;6.300;2023-04-25T03:21:28;2.33;;;1.65;;
12476;SDS011;6303;51.504;6.300;2023-04-25T03:23:57;1.92;;;1.73;;
12476;SDS011;6303;51.504;6.300;2023-04-25T03:26:24;1.88;;;1.70;;
12476;SDS011;6303;51.504;6.300;2023-04-25T03:28:51;2.22;;;1.67;;
12476;SDS011;6303;51.504;6.300;2023-04-25T03:31:18;1.75;;;1.60;;
12476;SDS011;6303;51.504;6.300;2023-04-25T03:33:46;3.00;;;1.75;;
12476;SDS011;6303;51.504;6.300;2023-04-25T03:36:14;2.00;;;1.70;;
12476;SDS011;6303;51.504;6.300;2023-04-25T03:38:41;1.80;;;1.67;;
12476;SDS011;6303;51.504;6.300;2023-04-25T03:41:09;1.80;;;1.45;;
12476;SDS011;6303;51.504;6.300;2023-04-25T03:43:51;2.45;;;1.75;;
12476;SDS011;6303;51.504;6.300;2023-04-25T03:46:18;2.88;;;1.60;;
12476;SDS011;6303;51.504;6.300;2023-04-25T03:48:46;1.88;;;1.45;;
12476;SDS011;6303;51.504;6.300;2023-04-25T03:51:21;1.88;;;1.65;;
12476;SDS011;6303;51.504;6.300;2023-04-25T03:53:48;1.63;;;1.50;;
12476;SDS011;6303;51.504;6.300;2023-04-25T03:56:18;1.83;;;1.63;;
12476;SDS011;6303;51.504;6.300;2023-04-25T03:58:51;2.65;;;1.58;;
12476;SDS011;6303;51.504;6.300;2023-04-25T04:01:19;1.77;;;1.40;;
12476;SDS011;6303;51.504;6.300;2023-04-25T04:03:46;1.55;;;1.40;;
12476;SDS011;6303;51.504;6.300;2023-04-25T04:06:13;1.90;;;1.65;;
12476;SDS011;6303;51.504;6.300;2023-04-25T04:08:46;1.67;;;1.50;;
12476;SDS011;6303;51.504;6.300;2023-04-25T04:11:13;2.20;;;1.73;;
12476;SDS011;6303;51.504;6.300;2023-04-25T04:13:40;1.63;;;1.50;;
12476;SDS011;6303;51.504;6.300;2023-04-25T04:16:07;2.42;;;1.58;;
12476;SDS011;6303;51.504;6.300;2023-04-25T04:18:35;2.80;;;1.60;;
12476;SDS011;6303;51.504;6.300;2023-04-25T04:21:02;2.08;;;1.60;;
12476;SDS011;6303;51.504;6.300;2023-04-25T04:23:32;1.70;;;1.60;;
12476;SDS011;6303;51.504;6.300;2023-04-25T04:26:01;1.83;;;1.60;;
12476;SDS011;6303;51.504;6.300;2023-04-25T04:28:41;1.92;;;1.35;;
12476;SDS011;6303;51.504;6.300;2023-04-25T04:31:41;1.85;;;1.65;;
12476;SDS011;6303;51.504;6.300;2023-04-25T04:34:09;2.03;;;1.77;;
12476;SDS011;6303;51.504;6.300;2023-04-25T04:36:37;2.33;;;1.60;;
12476;SDS011;6303;51.504;6.300;2023-04-25T04:39:07;2.03;;;1.60;;
12476;SDS011;6303;51.504;6.300;2023-04-25T04:41:39;1.77;;;1.58;;
12476;SDS011;6303;51.504;6.300;2023-04-25T04:44:34;2.33;;;1.50;;
12476;SDS011;6303;51.504;6.300;2023-04-25T04:47:12;1.83;;;1.60;;
12476;SDS011;6303;51.504;6.300;2023-04-25T04:49:54;1.73;;;1.63;;
12476;SDS011;6303;51.504;6.300;2023-04-25T04:52:40;2.30;;;1.50;;
12476;SDS011;6303;51.504;6.300;2023-04-25T04:55:28;2.20;;;1.50;;
12476;SDS011;6303;51.504;6.300;2023-04-25T04:58:22;3.50;;;1.70;;
12476;SDS011;6303;51.504;6.300;2023-04-25T05:01:03;4.22;;;1.60;;
12476;SDS011;6303;51.504;6.300;2023-04-25T05:03:51;2.15;;;1.65;;
12476;SDS011;6303;51.504;6.300;2023-04-25T05:06:41;1.50;;;1.40;;
12476;SDS011;6303;51.504;6.300;2023-04-25T05:09:28;2.30;;;1.50;;
12476;SDS011;6303;51.504;6.300;2023-04-25T05:12:11;1.77;;;1.50;;
12476;SDS011;6303;51.504;6.300;2023-04-25T05:15:06;2.20;;;1.73;;
12476;SDS011;6303;51.504;6.300;2023-04-25T05:18:09;3.83;;;1.50;;
12476;SDS011;6303;51.504;6.300;2023-04-25T05:20:46;4.13;;;1.67;;
12476;SDS011;6303;51.504;6.300;2023-04-25T05:23:33;5.85;;;1.88;;
12476;SDS011;6303;51.504;6.300;2023-04-25T05:26:23;5.38;;;1.73;;
12476;SDS011;6303;51.504;6.300;2023-04-25T05:29:06;5.10;;;2.55;;
12476;SDS011;6303;51.504;6.300;2023-04-25T05:31:54;8.70;;;1.80;;
12476;SDS011;6303;51.504;6.300;2023-04-25T05:34:21;4.30;;;1.92;;
12476;SDS011;6303;51.504;6.300;2023-04-25T05:36:55;5.28;;;2.10;;
12476;SDS011;6303;51.504;6.300;2023-04-25T05:39:23;5.18;;;2.03;;
12476;SDS011;6303;51.504;6.300;2023-04-25T05:42:06;6.50;;;1.90;;
12476;SDS011;6303;51.504;6.300;2023-04-25T05:45:03;7.38;;;2.50;;
12476;SDS011;6303;51.504;6.300;2023-04-25T05:47:38;6.90;;;2.50;;
12476;SDS011;6303;51.504;6.300;2023-04-25T05:50:14;6.75;;;2.63;;
12476;SDS011;6303;51.504;6.300;2023-04-25T05:52:59;9.50;;;3.20;;
12476;SDS011;6303;51.504;6.300;2023-04-25T05:55:31;7.32;;;3.03;;
12476;SDS011;6303;51.504;6.300;2023-04-25T05:58:01;10.13;;;3.28;;
12476;SDS011;6303;51.504;6.300;2023-04-25T06:00:28;7.32;;;2.90;;
12476;SDS011;6303;51.504;6.300;2023-04-25T06:02:57;7.50;;;3.00;;
12476;SDS011;6303;51.504;6.300;2023-04-25T06:05:24;7.05;;;3.22;;
12476;SDS011;6303;51.504;6.300;2023-04-25T06:07:51;4.57;;;2.70;;
12476;SDS011;6303;51.504;6.300;2023-04-25T06:10:19;8.10;;;2.85;;
12476;SDS011;6303;51.504;6.300;2023-04-25T06:12:46;7.72;;;3.00;;
12476;SDS011;6303;51.504;6.300;2023-04-25T06:15:15;9.88;;;3.13;;
12476;SDS011;6303;51.504;6.300;2023-04-25T06:17:43;6.43;;;3.10;;
12476;SDS011;6303;51.504;6.300;2023-04-25T06:20:11;5.60;;;2.90;;
12476;SDS011;6303;51.504;6.300;2023-04-25T06:22:39;6.20;;;3.28;;
12476;SDS011;6303;51.504;6.300;2023-04-25T06:25:07;7.00;;;2.95;;
12476;SDS011;6303;51.504;6.300;2023-04-25T06:27:34;7.03;;;3.05;;
12476;SDS011;6303;51.504;6.300;2023-04-25T06:30:05;6.60;;;2.97;;
12476;SDS011;6303;51.504;6.300;2023-04-25T06:32:33;7.28;;;3.42;;
12476;SDS011;6303;51.504;6.300;2023-04-25T06:35:01;10.07;;;3.53;;
12476;SDS011;6303;51.504;6.300;2023-04-25T06:37:30;8.07;;;3.05;;
12476;SDS011;6303;51.504;6.300;2023-04-25T06:39:57;5.93;;;2.75;;
12476;SDS011;6303;51.504;6.300;2023-04-25T06:42:24;8.23;;;3.08;;
12476;SDS011;6303;51.504;6.300;2023-04-25T06:44:56;7.57;;;3.35;;
12476;SDS011;6303;51.504;6.300;2023-04-25T06:47:23;9.35;;;3.30;;
12476;SDS011;6303;51.504;6.300;2023-04-25T06:49:50;8.02;;;2.97;;
12476;SDS011;6303;51.504;6.300;2023-04-25T06:52:19;5.22;;;2.97;;
12476;SDS011;6303;51.504;6.300;2023-04-25T06:54:49;5.60;;;2.72;;
12476;SDS011;6303;51.504;6.300;2023-04-25T06:57:39;6.47;;;2.70;;
12476;SDS011;6303;51.504;6.300;2023-04-25T07:00:32;5.95;;;2.78;;
12476;SDS011;6303;51.504;6.300;2023-04-25T07:02:59;6.85;;;2.63;;
12476;SDS011;6303;51.504;6.300;2023-04-25T07:05:26;7.35;;;2.92;;
12476;SDS011;6303;51.504;6.300;2023-04-25T07:07:53;8.88;;;3.28;;
12476;SDS011;6303;51.504;6.300;2023-04-25T07:10:22;6.60;;;2.50;;
12476;SDS011;6303;51.504;6.300;2023-04-25T07:12:49;5.15;;;2.35;;
12476;SDS011;6303;51.504;6.300;2023-04-25T07:15:16;5.60;;;2.45;;
12476;SDS011;6303;51.504;6.300;2023-04-25T07:17:47;6.43;;;2.72;;
12476;SDS011;6303;51.504;6.300;2023-04-25T07:20:14;6.13;;;2.50;;
12476;SDS011;6303;51.504;6.300;2023-04-25T07:22:41;7.10;;;2.47;;
12476;SDS011;6303;51.504;6.300;2023-04-25T07:25:09;5.82;;;2.60;;
12476;SDS011;6303;51.504;6.300;2023-04-25T07:27:37;7.95;;;2.60;;
12476;SDS011;6303;51.504;6.300;2023-04-25T07:30:13;7.30;;;2.47;;
12476;SDS011;6303;51.504;6.300;2023-04-25T07:32:40;5.82;;;2.17;;
12476;SDS011;6303;51.504;6.300;2023-04-25T07:35:07;5.47;;;2.40;;
12476;SDS011;6303;51.504;6.300;2023-04-25T07:37:35;7.70;;;2.78;;
12476;SDS011;6303;51.504;6.300;2023-04-25T07:40:10;6.53;;;2.50;;
12476;SDS011;6303;51.504;6.300;2023-04-25T07:42:44;5.30;;;2.53;;
12476;SDS011;6303;51.504;6.300;2023-04-25T07:45:15;5.88;;;2.33;;
12476;SDS011;6303;51.504;6.300;2023-04-25T07:47:43;6.07;;;2.50;;
12476;SDS011;6303;51.504;6.300;2023-04-25T07:50:11;5.40;;;2.63;;
12476;SDS011;6303;51.504;6.300;2023-04-25T07:52:38;7.35;;;2.45;;
12476;SDS011;6303;51.504;6.300;2023-04-25T07:55:17;6.85;;;2.67;;
12476;SDS011;6303;51.504;6.300;2023-04-25T07:57:58;6.00;;;2.78;;
12476;SDS011;6303;51.504;6.300;2023-04-25T08:00:28;3.88;;;2.05;;
12476;SDS011;6303;51.504;6.300;2023-04-25T08:03:15;5.18;;;2.38;;
12476;SDS011;6303;51.504;6.300;2023-04-25T08:05:43;4.35;;;1.85;;
12476;SDS011;6303;51.504;6.300;2023-04-25T08:08:11;3.55;;;2.15;;
12476;SDS011;6303;51.504;6.300;2023-04-25T08:10:39;4.15;;;2.00;;
12476;SDS011;6303;51.504;6.300;2023-04-25T08:13:09;4.47;;;2.13;;
12476;SDS011;6303;51.504;6.300;2023-04-25T08:15:36;6.68;;;2.58;;
12476;SDS011;6303;51.504;6.300;2023-04-25T08:18:03;4.53;;;2.10;;
12476;SDS011;6303;51.504;6.300;2023-04-25T08:20:31;3.70;;;1.88;;
12476;SDS011;6303;51.504;6.300;2023-04-25T08:23:00;5.85;;;2.15;;
12476;SDS011;6303;51.504;6.300;2023-04-25T08:25:43;5.03;;;1.88;;
12476;SDS011;6303;51.504;6.300;2023-04-25T08:28:13;4.90;;;2.13;;
12476;SDS011;6303;51.504;6.300;2023-04-25T08:30:41;4.25;;;1.88;;
12476;SDS011;6303;51.504;6.300;2023-04-25T08:33:11;4.78;;;2.05;;
12476;SDS011;6303;51.504;6.300;2023-04-25T08:35:55;5.68;;;2.20;;
12476;SDS011;6303;51.504;6.300;2023-04-25T08:38:23;3.58;;;1.70;;
12476;SDS011;6303;51.504;6.300;2023-04-25T08:40:50;4.38;;;1.95;;
12476;SDS011;6303;51.504;6.300;2023-04-25T08:43:20;5.40;;;1.90;;
12476;SDS011;6303;51.504;6.300;2023-04-25T08:45:49;5.95;;;2.05;;
12476;SDS011;6303;51.504;6.300;2023-04-25T08:48:30;3.58;;;1.92;;
12476;SDS011;6303;51.504;6.300;2023-04-25T08:51:01;3.92;;;1.75;;
12476;SDS011;6303;51.504;6.300;2023-04-25T08:53:32;3.33;;;1.70;;
12476;SDS011;6303;51.504;6.300;2023-04-25T08:56:03;3.53;;;1.70;;
12476;SDS011;6303;51.504;6.300;2023-04-25T08:58:35;3.85;;;2.00;;
12476;SDS011;6303;51.504;6.300;2023-04-25T09:01:03;3.30;;;1.73;;
12476;SDS011;6303;51.504;6.300;2023-04-25T09:03:37;4.10;;;1.90;;
12476;SDS011;6303;51.504;6.300;2023-04-25T09:06:04;3.63;;;2.13;;
12476;SDS011;6303;51.504;6.300;2023-04-25T09:08:32;3.53;;;2.10;;
12476;SDS011;6303;51.504;6.300;2023-04-25T09:10:59;4.20;;;2.03;;
12476;SDS011;6303;51.504;6.300;2023-04-25T09:13:26;3.15;;;1.80;;
12476;SDS011;6303;51.504;6.300;2023-04-25T09:16:22;3.03;;;1.77;;
12476;SDS011;6303;51.504;6.300;2023-04-25T09:19:21;2.63;;;1.70;;
12476;SDS011;6303;51.504;6.300;2023-04-25T09:21:49;3.47;;;1.90;;
12476;SDS011;6303;51.504;6.300;2023-04-25T09:24:16;2.80;;;1.52;;
12476;SDS011;6303;51.504;6.300;2023-04-25T09:26:45;4.00;;;1.58;;
12476;SDS011;6303;51.504;6.300;2023-04-25T09:29:13;3.95;;;1.90;;
12476;SDS011;6303;51.504;6.300;2023-04-25T09:31:42;2.33;;;1.55;;
12476;SDS011;6303;51.504;6.300;2023-04-25T09:34:11;1.90;;;1.70;;
12476;SDS011;6303;51.504;6.300;2023-04-25T09:36:45;2.80;;;1.75;;
12476;SDS011;6303;51.504;6.300;2023-04-25T09:39:38;3.47;;;1.80;;
12476;SDS011;6303;51.504;6.300;2023-04-25T09:42:12;3.75;;;1.83;;
12476;SDS011;6303;51.504;6.300;2023-04-25T09:44:42;2.60;;;1.60;;
12476;SDS011;6303;51.504;6.300;2023-04-25T09:47:11;3.83;;;1.83;;
12476;SDS011;6303;51.504;6.300;2023-04-25T09:49:43;2.90;;;1.83;;
12476;SDS011;6303;51.504;6.300;2023-04-25T09:52:13;2.40;;;1.90;;
12476;SDS011;6303;51.504;6.300;2023-04-25T09:54:54;2.72;;;1.42;;
12476;SDS011;6303;51.504;6.300;2023-04-25T09:57:30;3.67;;;2.15;;
12476;SDS011;6303;51.504;6.300;2023-04-25T09:59:58;3.45;;;1.92;;
12476;SDS011;6303;51.504;6.300;2023-04-25T10:02:41;2.85;;;1.52;;
12476;SDS011;6303;51.504;6.300;2023-04-25T10:05:28;3.58;;;1.80;;
12476;SDS011;6303;51.504;6.300;2023-04-25T10:07:58;3.55;;;1.80;;
12476;SDS011;6303;51.504;6.300;2023-04-25T10:10:28;3.58;;;1.92;;
12476;SDS011;6303;51.504;6.300;2023-04-25T10:13:01;3.13;;;1.67;;
12476;SDS011;6303;51.504;6.300;2023-04-25T10:15:30;2.25;;;1.55;;
12476;SDS011;6303;51.504;6.300;2023-04-25T10:18:00;3.20;;;1.80;;
12476;SDS011;6303;51.504;6.300;2023-04-25T10:20:28;2.45;;;1.60;;
12476;SDS011;6303;51.504;6.300;2023-04-25T10:22:57;2.80;;;1.65;;
12476;SDS011;6303;51.504;6.300;2023-04-25T10:25:29;3.78;;;1.55;;
12476;SDS011;6303;51.504;6.300;2023-04-25T10:27:56;3.53;;;2.10;;
12476;SDS011;6303;51.504;6.300;2023-04-25T10:30:26;3.17;;;2.03;;
12476;SDS011;6303;51.504;6.300;2023-04-25T10:32:54;2.05;;;1.50;;
12476;SDS011;6303;51.504;6.300;2023-04-25T10:35:25;2.22;;;1.42;;
12476;SDS011;6303;51.504;6.300;2023-04-25T10:37:57;2.67;;;1.63;;
12476;SDS011;6303;51.504;6.300;2023-04-25T10:40:25;2.58;;;1.60;;
12476;SDS011;6303;51.504;6.300;2023-04-25T10:42:52;1.98;;;1.73;;
12476;SDS011;6303;51.504;6.300;2023-04-25T10:45:21;3.30;;;1.73;;
12476;SDS011;6303;51.504;6.300;2023-04-25T10:47:48;3.25;;;1.60;;
12476;SDS011;6303;51.504;6.300;2023-04-25T10:50:15;2.33;;;1.55;;
12476;SDS011;6303;51.504;6.300;2023-04-25T10:52:44;3.70;;;1.60;;
12476;SDS011;6303;51.504;6.300;2023-04-25T10:55:12;2.97;;;1.83;;
12476;SDS011;6303;51.504;6.300;2023-04-25T10:57:40;2.13;;;1.55;;
12476;SDS011;6303;51.504;6.300;2023-04-25T11:00:10;2.03;;;1.60;;
12476;SDS011;6303;51.504;6.300;2023-04-25T11:02:42;2.33;;;1.58;;
12476;SDS011;6303;51.504;6.300;2023-04-25T11:05:10;2.03;;;1.50;;
12476;SDS011;6303;51.504;6.300;2023-04-25T11:07:49;2.30;;;1.50;;
12476;SDS011;6303;51.504;6.300;2023-04-25T11:10:18;2.67;;;1.73;;
12476;SDS011;6303;51.504;6.300;2023-04-25T11:12:45;2.20;;;1.30;;
12476;SDS011;6303;51.504;6.300;2023-04-25T11:15:12;2.53;;;1.42;;
12476;SDS011;6303;51.504;6.300;2023-04-25T11:17:40;2.30;;;1.60;;
12476;SDS011;6303;51.504;6.300;2023-04-25T11:20:08;4.32;;;1.50;;
12476;SDS011;6303;51.504;6.300;2023-04-25T11:22:39;1.90;;;1.40;;
12476;SDS011;6303;51.504;6.300;2023-04-25T11:25:09;2.38;;;1.42;;
12476;SDS011;6303;51.504;6.300;2023-04-25T11:27:38;2.55;;;1.60;;
12476;SDS011;6303;51.504;6.300;2023-04-25T11:30:15;2.58;;;1.30;;
12476;SDS011;6303;51.504;6.300;2023-04-25T11:32:42;2.15;;;1.50;;
12476;SDS011;6303;51.504;6.300;2023-04-25T11:35:09;2.28;;;1.38;;
12476;SDS011;6303;51.504;6.300;2023-04-25T11:37:38;1.77;;;1.25;;
12476;SDS011;6303;51.504;6.300;2023-04-25T11:40:06;2.30;;;1.42;;
12476;SDS011;6303;51.504;6.300;2023-04-25T11:42:37;3.05;;;1.40;;
12476;SDS011;6303;51.504;6.300;2023-04-25T11:45:05;4.47;;;1.67;;
12476;SDS011;6303;51.504;6.300;2023-04-25T11:47:33;4.85;;;1.73;;
12476;SDS011;6303;51.504;6.300;2023-04-25T11:50:00;4.10;;;1.60;;
12476;SDS011;6303;51.504;6.300;2023-04-25T11:52:40;3.92;;;1.65;;
12476;SDS011;6303;51.504;6.300;2023-04-25T11:55:09;3.67;;;1.73;;
12476;SDS011;6303;51.504;6.300;2023-04-25T11:57:41;6.57;;;1.67;;
12476;SDS011;6303;51.504;6.300;2023-04-25T12:00:10;5.45;;;1.70;;
12476;SDS011;6303;51.504;6.300;2023-04-25T12:02:42;4.15;;;1.80;;
12476;SDS011;6303;51.504;6.300;2023-04-25T12:05:10;5.57;;;2.00;;
12476;SDS011;6303;51.504;6.300;2023-04-25T12:07:38;5.15;;;1.98;;
12476;SDS011;6303;51.504;6.300;2023-04-25T12:10:07;5.05;;;1.67;;
12476;SDS011;6303;51.504;6.300;2023-04-25T12:12:35;4.13;;;1.75;;
12476;SDS011;6303;51.504;6.300;2023-04-25T12:15:12;5.25;;;1.50;;
12476;SDS011;6303;51.504;6.300;2023-04-25T12:17:44;5.82;;;1.58;;
12476;SDS011;6303;51.504;6.300;2023-04-25T12:20:12;3.22;;;1.60;;
12476;SDS011;6303;51.504;6.300;2023-04-25T12:22:41;4.47;;;1.58;;
12476;SDS011;6303;51.504;6.300;2023-04-25T12:25:11;3.47;;;1.90;;
12476;SDS011;6303;51.504;6.300;2023-04-25T12:27:38;4.57;;;1.70;;
12476;SDS011;6303;51.504;6.300;2023-04-25T12:30:08;4.20;;;1.60;;
12476;SDS011;6303;51.504;6.300;2023-04-25T12:32:37;4.15;;;1.70;;
12476;SDS011;6303;51.504;6.300;2023-04-25T12:35:04;2.22;;;1.73;;
12476;SDS011;6303;51.504;6.300;2023-04-25T12:37:32;4.82;;;1.40;;
12476;SDS011;6303;51.504;6.300;2023-04-25T12:39:59;3.72;;;1.45;;
12476;SDS011;6303;51.504;6.300;2023-04-25T12:42:26;2.88;;;1.33;;
12476;SDS011;6303;51.504;6.300;2023-04-25T12:44:53;3.42;;;1.55;;
12476;SDS011;6303;51.504;6.300;2023-04-25T12:47:20;2.45;;;1.35;;
12476;SDS011;6303;51.504;6.300;2023-04-25T12:49:49;3.60;;;1.30;;
12476;SDS011;6303;51.504;6.300;2023-04-25T12:52:16;2.50;;;1.50;;
12476;SDS011;6303;51.504;6.300;2023-04-25T12:54:43;2.30;;;1.38;;
12476;SDS011;6303;51.504;6.300;2023-04-25T12:57:10;2.58;;;1.30;;
12476;SDS011;6303;51.504;6.300;2023-04-25T12:59:37;2.90;;;1.40;;
12476;SDS011;6303;51.504;6.300;2023-04-25T13:02:04;2.90;;;1.35;;
12476;SDS011;6303;51.504;6.300;2023-04-25T13:04:31;2.92;;;1.50;;
12476;SDS011;6303;51.504;6.300;2023-04-25T13:07:00;2.85;;;1.40;;
12476;SDS011;6303;51.504;6.300;2023-04-25T13:09:27;2.05;;;1.30;;
12476;SDS011;6303;51.504;6.300;2023-04-25T13:11:54;2.38;;;1.40;;
12476;SDS011;6303;51.504;6.300;2023-04-25T13:14:21;3.00;;;1.30;;
12476;SDS011;6303;51.504;6.300;2023-04-25T13:16:48;2.92;;;1.45;;
12476;SDS011;6303;51.504;6.300;2023-04-25T13:19:15;1.33;;;1.10;;
12476;SDS011;6303;51.504;6.300;2023-04-25T13:21:42;1.92;;;1.20;;
12476;SDS011;6303;51.504;6.300;2023-04-25T13:24:10;2.28;;;1.20;;
12476;SDS011;6303;51.504;6.300;2023-04-25T13:26:37;1.63;;;1.30;;
12476;SDS011;6303;51.504;6.300;2023-04-25T13:29:04;2.08;;;1.40;;
12476;SDS011;6303;51.504;6.300;2023-04-25T13:31:31;1.65;;;1.10;;
12476;SDS011;6303;51.504;6.300;2023-04-25T13:33:58;1.50;;;1.25;;
12476;SDS011;6303;51.504;6.300;2023-04-25T13:36:25;2.33;;;1.30;;
12476;SDS011;6303;51.504;6.300;2023-04-25T13:38:53;2.50;;;1.33;;
12476;SDS011;6303;51.504;6.300;2023-04-25T13:41:21;1.70;;;1.40;;
12476;SDS011;6303;51.504;6.300;2023-04-25T13:43:48;1.63;;;1.50;;
12476;SDS011;6303;51.504;6.300;2023-04-25T13:46:15;1.17;;;1.08;;
12476;SDS011;6303;51.504;6.300;2023-04-25T13:48:43;1.50;;;1.17;;
12476;SDS011;6303;51.504;6.300;2023-04-25T13:51:15;2.08;;;1.40;;
12476;SDS011;6303;51.504;6.300;2023-04-25T13:53:42;2.08;;;1.20;;
12476;SDS011;6303;51.504;6.300;2023-04-25T13:56:10;1.38;;;1.20;;
12476;SDS011;6303;51.504;6.300;2023-04-25T13:58:39;2.00;;;1.25;;
12476;SDS011;6303;51.504;6.300;2023-04-25T14:01:06;1.05;;;1.00;;
12476;SDS011;6303;51.504;6.300;2023-04-25T14:03:33;1.90;;;1.17;;
12476;SDS011;6303;51.504;6.300;2023-04-25T14:06:00;1.75;;;1.27;;
12476;SDS011;6303;51.504;6.300;2023-04-25T14:08:27;1.80;;;1.20;;
12476;SDS011;6303;51.504;6.300;2023-04-25T14:10:54;1.48;;;1.10;;
12476;SDS011;6303;51.504;6.300;2023-04-25T14:13:21;1.45;;;1.20;;
12476;SDS011;6303;51.504;6.300;2023-04-25T14:15:51;1.73;;;1.08;;
12476;SDS011;6303;51.504;6.300;2023-04-25T14:18:18;1.83;;;1.30;;
12476;SDS011;6303;51.504;6.300;2023-04-25T14:20:45;1.20;;;1.00;;
12476;SDS011;6303;51.504;6.300;2023-04-25T14:23:12;1.85;;;1.10;;
12476;SDS011;6303;51.504;6.300;2023-04-25T14:25:40;2.95;;;1.10;;
12476;SDS011;6303;51.504;6.300;2023-04-25T14:28:08;1.38;;;1.00;;
12476;SDS011;6303;51.504;6.300;2023-04-25T14:30:36;2.05;;;1.20;;
12476;SDS011;6303;51.504;6.300;2023-04-25T14:33:04;2.00;;;1.02;;
12476;SDS011;6303;51.504;6.300;2023-04-25T14:35:31;1.30;;;1.02;;
12476;SDS011;6303;51.504;6.300;2023-04-25T14:37:58;1.55;;;1.13;;
12476;SDS011;6303;51.504;6.300;2023-04-25T14:40:25;1.85;;;1.20;;
12476;SDS011;6303;51.504;6.300;2023-04-25T14:42:52;2.60;;;1.10;;
12476;SDS011;6303;51.504;6.300;2023-04-25T14:45:20;1.17;;;1.00;;
12476;SDS011;6303;51.504;6.300;2023-04-25T14:47:47;0.82;;;0.82;;
12476;SDS011;6303;51.504;6.300;2023-04-25T14:50:15;1.52;;;1.00;;
12476;SDS011;6303;51.504;6.300;2023-04-25T14:52:43;1.20;;;1.10;;
12476;SDS011;6303;51.504;6.300;2023-04-25T14:55:11;0.98;;;0.90;;
12476;SDS011;6303;51.504;6.300;2023-04-25T14:57:38;2.30;;;1.10;;
12476;SDS011;6303;51.504;6.300;2023-04-25T15:00:05;1.23;;;1.05;;
12476;SDS011;6303;51.504;6.300;2023-04-25T15:02:34;1.40;;;1.10;;
12476;SDS011;6303;51.504;6.300;2023-04-25T15:05:02;1.58;;;1.08;;
12476;SDS011;6303;51.504;6.300;2023-04-25T15:07:31;1.17;;;1.00;;
12476;SDS011;6303;51.504;6.300;2023-04-25T15:10:00;1.30;;;1.20;;
12476;SDS011;6303;51.504;6.300;2023-04-25T15:12:27;1.00;;;0.80;;
12476;SDS011;6303;51.504;6.300;2023-04-25T15:14:55;1.77;;;1.20;;
12476;SDS011;6303;51.504;6.300;2023-04-25T15:17:22;2.05;;;1.17;;
12476;SDS011;6303;51.504;6.300;2023-04-25T15:19:49;1.42;;;1.08;;